Time,TemperatureF,DewpointF,PressureIn,WindDirection,WindDirectionDegrees,WindSpeedMPH,WindSpeedGustMPH,Humidity,HourlyPrecipIn,Conditions,Clouds,dailyrainin,SoftwareType,DateUTC
2013-01-21 00:03:00,17.8,9.6,27.43,NE,45,0.0,0.0,70,0.00,RA,,0.00,WeatherDisplay:10.37,2013-01-21 06:03:00,
2013-01-21 00:08:00,17.8,9.6,27.43,NE,45,0.0,0.0,70,0.00,RA,,0.00,WeatherDisplay:10.37,2013-01-21 06:08:00,
2013-01-21 00:13:00,17.6,9.8,27.43,NE,45,0.0,0.0,71,0.00,CLR,,0.00,WeatherDisplay:10.37,2013-01-21 06:13:00,
2013-01-21 00:18:00,17.6,9.8,27.43,South,180,0.0,0.0,71,0.00,CLR,,0.00,WeatherDisplay:10.37,2013-01-21 06:18:00,
2013-01-21 00:23:00,17.4,9.9,27.43,South,180,0.0,0.0,72,0.00,CLR,,0.00,WeatherDisplay:10.37,2013-01-21 06:23:00,
2013-01-21 00:28:00,17.4,9.9,27.43,South,180,0.0,0.0,72,0.00,CLR,,0.00,WeatherDisplay:10.37,2013-01-21 06:28:00,
2013-01-21 00:33:00,17.2,9.8,27.43,South,180,0.0,0.0,72,0.00,CLR,,0.00,WeatherDisplay:10.37,2013-01-21 06:33:00,
2013-01-21 00:38:00,17.2,9.8,27.43,North,0,0.0,0.0,72,0.00,CLR,,0.00,WeatherDisplay:10.37,2013-01-21 06:38:00,
2013-01-21 00:43:00,17.2,9.8,27.42,NW,315,1.1,0.0,72,0.00,CLR,,0.00,WeatherDisplay:10.37,2013-01-21 06:43:00,
2013-01-21 00:48:00,17.1,9.6,27.43,NW,315,1.1,1.1,72,0.00,CLR,,0.00,WeatherDisplay:10.37,2013-01-21 06:48:00,
2013-01-21 00:53:00,17.1,9.6,27.42,North,0,1.1,1.1,72,0.00,CLR,,0.00,WeatherDisplay:10.37,2013-01-21 06:53:00,
2013-01-21 00:58:00,16.9,9.4,27.42,North,0,0.0,0.0,72,0.00,CLR,,0.00,WeatherDisplay:10.37,2013-01-21 06:58:00,
2013-01-21 01:03:00,16.7,9.2,27.42,NW,315,0.0,0.0,72,0.00,CLR,,0.00,WeatherDisplay:10.37,2013-01-21 07:03:00,
2013-01-21 01:08:00,16.7,9.2,27.42,NW,315,0.0,0.0,72,0.00,CLR,,0.00,WeatherDisplay:10.37,2013-01-21 07:08:00,
2013-01-21 01:13:00,16.7,9.2,27.42,NW,315,0.0,0.0,72,0.00,CLR,,0.00,WeatherDisplay:10.37,2013-01-21 07:13:00,
2013-01-21 01:18:00,16.5,9.4,27.42,NW,315,0.0,0.0,73,0.00,CLR,,0.00,WeatherDisplay:10.37,2013-01-21 07:18:00,
2013-01-21 01:23:00,16.5,9.4,27.42,South,180,3.5,3.5,73,0.00,CLR,,0.00,WeatherDisplay:10.37,2013-01-21 07:23:00,
2013-01-21 01:28:00,16.3,8.9,27.42,SE,135,1.1,1.6,72,0.00,CLR,,0.00,WeatherDisplay:10.37,2013-01-21 07:28:00,
2013-01-21 01:33:00,16.2,8.7,27.42,SE,135,1.1,0.0,72,0.00,CLR,,0.00,WeatherDisplay:10.37,2013-01-21 07:33:00,
2013-01-21 01:38:00,16.0,8.5,27.42,South,180,2.3,2.3,72,0.00,CLR,,0.00,WeatherDisplay:10.37,2013-01-21 07:38:00,
2013-01-21 01:43:00,16.0,8.5,27.42,South,180,3.5,3.5,72,0.00,CLR,,0.00,WeatherDisplay:10.37,2013-01-21 07:43:00,
2013-01-21 01:49:00,15.8,8.4,27.42,South,180,0.0,0.0,72,0.00,CLR,,0.00,WeatherDisplay:10.37,2013-01-21 07:49:00,
2013-01-21 01:54:00,15.6,8.5,27.41,South,180,2.3,0.0,73,0.00,CLR,,0.00,WeatherDisplay:10.37,2013-01-21 07:54:00,
2013-01-21 01:59:00,15.4,8.3,27.41,North,0,1.1,0.0,73,0.00,CLR,,0.00,WeatherDisplay:10.37,2013-01-21 07:59:00,
2013-01-21 02:04:00,15.4,8.3,27.41,North,0,0.0,0.0,73,0.00,CLR,,0.00,WeatherDisplay:10.37,2013-01-21 08:04:00,
2013-01-21 02:09:00,15.4,8.3,27.41,SE,135,0.0,0.0,73,0.00,CLR,,0.00,WeatherDisplay:10.37,2013-01-21 08:09:00,
2013-01-21 02:14:00,15.4,8.3,27.41,NE,45,0.0,0.0,73,0.00,CLR,,0.00,WeatherDisplay:10.37,2013-01-21 08:14:00,
2013-01-21 02:19:00,15.4,8.3,27.42,North,0,0.0,0.0,73,0.00,CLR,,0.00,WeatherDisplay:10.37,2013-01-21 08:19:00,
2013-01-21 02:24:00,15.4,8.3,27.42,North,0,1.1,0.0,73,0.00,CLR,,0.00,WeatherDisplay:10.37,2013-01-21 08:24:00,
2013-01-21 02:29:00,15.3,8.2,27.42,North,0,0.0,0.0,73,0.00,CLR,,0.00,WeatherDisplay:10.37,2013-01-21 08:29:00,
2013-01-21 02:34:00,15.1,8.0,27.42,NW,315,1.1,0.0,73,0.00,CLR,,0.00,WeatherDisplay:10.37,2013-01-21 08:34:00,
2013-01-21 02:39:00,15.1,8.0,27.42,NW,315,0.0,0.0,73,0.00,CLR,,0.00,WeatherDisplay:10.37,2013-01-21 08:39:00,
2013-01-21 02:44:00,15.1,8.3,27.41,NW,315,0.0,0.0,74,0.00,CLR,,0.00,WeatherDisplay:10.37,2013-01-21 08:44:00,
2013-01-21 02:49:00,15.1,8.3,27.42,West,270,0.0,0.0,74,0.00,CLR,,0.00,WeatherDisplay:10.37,2013-01-21 08:49:00,
2013-01-21 02:54:00,14.9,8.1,27.41,North,0,0.0,0.0,74,0.00,CLR,,0.00,WeatherDisplay:10.37,2013-01-21 08:54:00,
2013-01-21 02:59:00,14.9,8.1,27.41,North,0,0.0,0.0,74,0.00,CLR,,0.00,WeatherDisplay:10.37,2013-01-21 08:59:00,
2013-01-21 03:04:00,14.9,8.1,27.40,North,0,0.0,0.0,74,0.00,CLR,,0.00,WeatherDisplay:10.37,2013-01-21 09:04:00,
2013-01-21 03:09:00,14.9,8.1,27.40,North,0,0.0,0.0,74,0.00,CLR,,0.00,WeatherDisplay:10.37,2013-01-21 09:09:00,
2013-01-21 03:14:00,14.7,7.9,27.40,North,0,0.0,0.0,74,0.00,CLR,,0.00,WeatherDisplay:10.37,2013-01-21 09:14:00,
2013-01-21 03:19:00,14.7,7.9,27.40,North,0,1.1,0.0,74,0.00,CLR,,0.00,WeatherDisplay:10.37,2013-01-21 09:19:00,
2013-01-21 03:24:00,14.7,7.9,27.39,South,180,0.0,0.0,74,0.00,CLR,,0.00,WeatherDisplay:10.37,2013-01-21 09:24:00,
2013-01-21 03:29:00,14.7,7.9,27.39,North,0,0.0,0.0,74,0.00,CLR,,0.00,WeatherDisplay:10.37,2013-01-21 09:29:00,
2013-01-21 03:34:00,14.7,7.9,27.39,North,0,0.0,0.0,74,0.00,CLR,,0.00,WeatherDisplay:10.37,2013-01-21 09:34:00,
2013-01-21 03:39:00,14.7,7.9,27.39,South,180,0.0,0.0,74,0.00,CLR,,0.00,WeatherDisplay:10.37,2013-01-21 09:39:00,
2013-01-21 03:44:00,14.5,7.8,27.39,NW,315,0.0,0.0,74,0.00,CLR,,0.00,WeatherDisplay:10.37,2013-01-21 09:44:00,
2013-01-21 03:49:00,14.7,7.9,27.39,North,0,1.1,0.0,74,0.00,CLR,,0.00,WeatherDisplay:10.37,2013-01-21 09:49:00,
2013-01-21 03:54:00,14.5,7.8,27.38,North,0,0.0,0.0,74,0.00,CLR,,0.00,WeatherDisplay:10.37,2013-01-21 09:54:00,
2013-01-21 03:59:00,14.5,7.8,27.38,North,0,0.0,0.0,74,0.00,CLR,,0.00,WeatherDisplay:10.37,2013-01-21 09:59:00,
2013-01-21 04:04:00,14.5,7.8,27.38,North,0,0.0,0.0,74,0.00,CLR,,0.00,WeatherDisplay:10.37,2013-01-21 10:04:00,
2013-01-21 04:09:00,14.4,7.6,27.38,North,0,0.0,0.0,74,0.00,CLR,,0.00,WeatherDisplay:10.37,2013-01-21 10:09:00,
2013-01-21 04:14:00,14.4,7.6,27.38,North,0,0.0,0.0,74,0.00,CLR,,0.00,WeatherDisplay:10.37,2013-01-21 10:14:00,
2013-01-21 04:19:00,14.2,7.4,27.38,North,0,0.0,0.0,74,0.00,CLR,,0.00,WeatherDisplay:10.37,2013-01-21 10:19:00,
2013-01-21 04:24:00,14.2,7.4,27.38,North,0,0.0,0.0,74,0.00,CLR,,0.00,WeatherDisplay:10.37,2013-01-21 10:24:00,
2013-01-21 04:29:00,14.0,7.2,27.38,North,0,0.0,0.0,74,0.00,CLR,,0.00,WeatherDisplay:10.37,2013-01-21 10:29:00,
2013-01-21 04:34:00,14.0,7.2,27.38,North,0,0.0,0.0,74,0.00,CLR,,0.00,WeatherDisplay:10.37,2013-01-21 10:34:00,
2013-01-21 04:39:00,14.0,7.2,27.38,NW,315,1.1,0.0,74,0.00,CLR,,0.00,WeatherDisplay:10.37,2013-01-21 10:39:00,
2013-01-21 04:44:00,14.2,7.4,27.38,NW,315,1.1,0.0,74,0.00,CLR,,0.00,WeatherDisplay:10.37,2013-01-21 10:44:00,
2013-01-21 04:49:00,14.4,7.9,27.37,South,180,0.0,0.0,75,0.00,CLR,,0.00,WeatherDisplay:10.37,2013-01-21 10:49:00,
2013-01-21 04:54:00,14.4,7.9,27.37,North,0,0.0,0.0,75,0.00,CLR,,0.00,WeatherDisplay:10.37,2013-01-21 10:54:00,
2013-01-21 04:59:00,14.2,7.7,27.37,North,0,0.0,0.0,75,0.00,CLR,,0.00,WeatherDisplay:10.37,2013-01-21 10:59:00,
2013-01-21 05:04:00,14.2,7.7,27.37,North,0,0.0,0.0,75,0.00,CLR,,0.00,WeatherDisplay:10.37,2013-01-21 11:04:00,
2013-01-21 05:09:00,14.2,7.4,27.37,South,180,0.0,0.0,74,0.00,CLR,,0.00,WeatherDisplay:10.37,2013-01-21 11:09:00,
2013-01-21 05:14:00,14.2,7.7,27.36,East,90,1.1,0.0,75,0.00,CLR,,0.00,WeatherDisplay:10.37,2013-01-21 11:14:00,
2013-01-21 05:19:00,14.2,7.7,27.36,South,180,0.0,0.0,75,0.00,CLR,,0.00,WeatherDisplay:10.37,2013-01-21 11:19:00,
2013-01-21 05:24:00,14.2,7.7,27.36,SE,135,1.1,0.0,75,0.00,CLR,,0.00,WeatherDisplay:10.37,2013-01-21 11:24:00,
2013-01-21 05:29:00,14.2,7.7,27.36,North,0,1.1,1.1,75,0.00,CLR,,0.00,WeatherDisplay:10.37,2013-01-21 11:29:00,
2013-01-21 05:34:00,14.2,7.4,27.36,North,0,1.1,0.0,74,0.00,CLR,,0.00,WeatherDisplay:10.37,2013-01-21 11:34:00,
2013-01-21 05:39:00,14.0,7.2,27.36,North,0,0.0,0.0,74,0.00,CLR,,0.00,WeatherDisplay:10.37,2013-01-21 11:39:00,
2013-01-21 05:44:00,14.0,7.2,27.36,SE,135,2.3,2.3,74,0.00,CLR,,0.00,WeatherDisplay:10.37,2013-01-21 11:44:00,
2013-01-21 05:49:00,13.8,7.4,27.35,South,180,1.1,1.1,75,0.00,CLR,,0.00,WeatherDisplay:10.37,2013-01-21 11:49:00,
2013-01-21 05:54:00,13.6,7.2,27.34,SE,135,2.3,0.0,75,0.00,CLR,,0.00,WeatherDisplay:10.37,2013-01-21 11:54:00,
2013-01-21 05:59:00,13.5,7.0,27.35,East,90,1.1,0.0,75,0.00,CLR,,0.00,WeatherDisplay:10.37,2013-01-21 11:59:00,
2013-01-21 06:04:00,13.5,7.0,27.34,North,0,2.3,2.3,75,0.00,CLR,,0.00,WeatherDisplay:10.37,2013-01-21 12:04:00,
2013-01-21 06:09:00,13.5,7.0,27.34,North,0,0.0,0.0,75,0.00,CLR,,0.00,WeatherDisplay:10.37,2013-01-21 12:09:00,
2013-01-21 06:14:00,13.5,7.0,27.34,North,0,1.1,1.1,75,0.00,CLR,,0.00,WeatherDisplay:10.37,2013-01-21 12:14:00,
2013-01-21 06:19:00,14.0,7.2,27.34,North,0,0.0,0.0,74,0.00,CLR,,0.00,WeatherDisplay:10.37,2013-01-21 12:19:00,
2013-01-21 06:24:00,14.4,7.9,27.34,North,0,1.1,0.0,75,0.00,CLR,,0.00,WeatherDisplay:10.37,2013-01-21 12:24:00,
2013-01-21 06:29:00,14.4,7.9,27.34,North,0,0.0,0.0,75,0.00,CLR,,0.00,WeatherDisplay:10.37,2013-01-21 12:29:00,
2013-01-21 06:34:00,14.2,7.7,27.35,North,0,1.1,1.6,75,0.00,CLR,,0.00,WeatherDisplay:10.37,2013-01-21 12:34:00,
2013-01-21 06:40:00,14.2,7.7,27.36,North,0,3.5,3.5,75,0.00,CLR,,0.00,WeatherDisplay:10.37,2013-01-21 12:40:00,
2013-01-21 06:45:00,14.2,7.7,27.36,North,0,1.1,1.1,75,0.00,CLR,,0.00,WeatherDisplay:10.37,2013-01-21 12:45:00,
2013-01-21 06:50:00,14.0,7.5,27.36,North,0,1.1,1.1,75,0.00,CLR,,0.00,WeatherDisplay:10.37,2013-01-21 12:50:00,
2013-01-21 06:55:00,13.8,7.4,27.35,North,0,1.1,1.1,75,0.00,CLR,,0.00,WeatherDisplay:10.37,2013-01-21 12:55:00,
2013-01-21 07:00:00,13.6,7.2,27.35,North,0,0.0,0.0,75,0.00,CLR,,0.00,WeatherDisplay:10.37,2013-01-21 13:00:00,
2013-01-21 07:05:00,13.5,7.0,27.35,North,0,0.0,0.0,75,0.00,CLR,,0.00,WeatherDisplay:10.37,2013-01-21 13:05:00,
2013-01-21 07:10:00,13.1,6.7,27.36,North,0,0.0,0.0,75,0.00,CLR,,0.00,WeatherDisplay:10.37,2013-01-21 13:10:00,
2013-01-21 07:15:00,13.1,6.7,27.36,North,0,1.1,0.0,75,0.00,CLR,,0.00,WeatherDisplay:10.37,2013-01-21 13:15:00,
2013-01-21 07:20:00,13.1,6.7,27.35,North,0,0.0,0.0,75,0.00,CLR,,0.00,WeatherDisplay:10.37,2013-01-21 13:20:00,
2013-01-21 07:25:00,13.1,6.7,27.35,North,0,1.1,1.1,75,0.00,CLR,,0.00,WeatherDisplay:10.37,2013-01-21 13:25:00,
2013-01-21 07:30:00,12.9,6.5,27.35,North,0,1.1,0.0,75,0.00,CLR,,0.00,WeatherDisplay:10.37,2013-01-21 13:30:00,
2013-01-21 07:35:00,13.1,6.7,27.35,North,0,0.0,0.0,75,0.00,CLR,,0.00,WeatherDisplay:10.37,2013-01-21 13:35:00,
2013-01-21 07:40:00,12.9,6.5,27.35,North,0,1.1,0.0,75,0.00,CLR,,0.00,WeatherDisplay:10.37,2013-01-21 13:40:00,
2013-01-21 07:45:00,13.1,6.7,27.35,North,0,1.1,0.0,75,0.00,CLR,,0.00,WeatherDisplay:10.37,2013-01-21 13:45:00,
2013-01-21 07:50:00,13.1,6.7,27.35,North,0,0.0,0.0,75,0.00,CLR,,0.00,WeatherDisplay:10.37,2013-01-21 13:50:00,
2013-01-21 07:55:00,13.1,6.7,27.35,North,0,0.0,0.0,75,0.00,CLR,,0.00,WeatherDisplay:10.37,2013-01-21 13:55:00,
2013-01-21 08:00:00,12.9,6.5,27.35,North,0,0.0,0.0,75,0.00,CLR,,0.00,WeatherDisplay:10.37,2013-01-21 14:00:00,
2013-01-21 08:05:00,12.9,6.5,27.34,North,0,0.0,0.0,75,0.00,CLR,,0.00,WeatherDisplay:10.37,2013-01-21 14:05:00,
2013-01-21 08:10:00,12.7,6.3,27.34,North,0,0.0,0.0,75,0.00,CLR,,0.00,WeatherDisplay:10.37,2013-01-21 14:10:00,
2013-01-21 08:15:00,12.7,6.3,27.34,North,0,2.3,2.3,75,0.00,CLR,,0.00,WeatherDisplay:10.37,2013-01-21 14:15:00,
2013-01-21 08:20:00,12.7,6.3,27.34,North,0,1.1,0.0,75,0.00,CLR,,0.00,WeatherDisplay:10.37,2013-01-21 14:20:00,
2013-01-21 08:25:00,12.7,6.3,27.34,SE,135,1.1,3.1,75,0.00,CLR,,0.00,WeatherDisplay:10.37,2013-01-21 14:25:00,
2013-01-21 08:30:00,12.9,6.5,27.32,SE,135,3.5,3.5,75,0.00,CLR,,0.00,WeatherDisplay:10.37,2013-01-21 14:30:00,
2013-01-21 08:35:00,13.3,6.8,27.33,East,90,3.5,3.5,75,0.00,CLR,,0.00,WeatherDisplay:10.37,2013-01-21 14:35:00,
2013-01-21 08:40:00,13.6,7.5,27.34,North,0,1.1,1.1,76,0.00,CLR,,0.00,WeatherDisplay:10.37,2013-01-21 14:40:00,
2013-01-21 08:45:00,14.2,7.7,27.34,North,0,1.1,0.0,75,0.00,CLR,,0.00,WeatherDisplay:10.37,2013-01-21 14:45:00,
2013-01-21 08:50:00,14.5,8.1,27.34,North,0,0.0,0.0,75,0.00,CLR,,0.00,WeatherDisplay:10.37,2013-01-21 14:50:00,
2013-01-21 08:55:00,15.1,8.6,27.33,North,0,1.1,0.0,75,0.00,CLR,,0.00,WeatherDisplay:10.37,2013-01-21 14:55:00,
2013-01-21 09:00:00,15.4,8.9,27.33,North,0,1.1,0.0,75,0.00,CLR,,0.00,WeatherDisplay:10.37,2013-01-21 15:00:00,
2013-01-21 09:05:00,15.6,9.1,27.32,North,0,1.1,0.0,75,0.00,CLR,,0.00,WeatherDisplay:10.37,2013-01-21 15:05:00,
2013-01-21 09:10:00,16.0,9.2,27.33,North,0,1.1,0.0,74,0.00,CLR,,0.00,WeatherDisplay:10.37,2013-01-21 15:10:00,
2013-01-21 09:15:00,16.5,9.7,27.34,North,0,1.1,0.0,74,0.00,CLR,,0.00,WeatherDisplay:10.37,2013-01-21 15:15:00,
2013-01-21 09:20:00,17.2,10.4,27.34,North,0,0.0,0.0,74,0.00,CLR,,0.00,WeatherDisplay:10.37,2013-01-21 15:20:00,
2013-01-21 09:25:00,17.8,10.6,27.34,North,0,0.7,0.0,73,0.00,CLR,,0.00,WeatherDisplay:10.37,2013-01-21 15:25:00,
2013-01-21 09:30:00,18.0,10.8,27.34,North,0,0.0,0.0,73,0.00,CLR,,0.00,WeatherDisplay:10.37,2013-01-21 15:30:00,
2013-01-21 09:35:00,18.3,11.1,27.34,North,0,0.0,0.0,73,0.00,CLR,,0.00,WeatherDisplay:10.37,2013-01-21 15:35:00,
2013-01-21 09:40:00,19.0,11.8,27.34,North,0,1.1,0.0,73,0.00,CLR,,0.00,WeatherDisplay:10.37,2013-01-21 15:40:00,
2013-01-21 09:45:00,19.6,13.5,27.35,North,0,0.0,0.0,77,0.00,CLR,,0.00,WeatherDisplay:10.37,2013-01-21 15:45:00,
2013-01-21 09:50:00,20.1,13.8,27.35,North,0,0.0,0.0,76,0.00,CLR,,0.00,WeatherDisplay:10.37,2013-01-21 15:50:00,
2013-01-21 09:55:00,21.0,14.6,27.34,South,180,3.5,3.5,76,0.00,CLR,,0.00,WeatherDisplay:10.37,2013-01-21 15:55:00,
2013-01-21 10:00:00,21.6,14.9,27.35,East,90,1.1,0.0,75,0.00,CLR,,0.00,WeatherDisplay:10.37,2013-01-21 16:00:00,
2013-01-21 10:05:00,21.6,14.9,27.35,East,90,1.1,0.0,75,0.00,CLR,,0.00,WeatherDisplay:10.37,2013-01-21 16:05:00,
2013-01-21 10:10:00,22.6,15.9,27.34,North,0,1.1,0.0,75,0.00,CLR,,0.00,WeatherDisplay:10.37,2013-01-21 16:10:00,
2013-01-21 10:15:00,22.6,15.9,27.35,North,0,1.1,0.0,75,0.00,CLR,,0.00,WeatherDisplay:10.37,2013-01-21 16:15:00,
2013-01-21 10:20:00,23.7,16.3,27.35,North,0,1.1,0.0,73,0.00,CLR,,0.00,WeatherDisplay:10.37,2013-01-21 16:20:00,
2013-01-21 10:25:00,23.9,16.5,27.35,NW,315,3.5,3.5,73,0.00,CLR,,0.00,WeatherDisplay:10.37,2013-01-21 16:25:00,
2013-01-21 10:30:00,24.1,16.4,27.35,NE,45,3.5,3.5,72,0.00,CLR,,0.00,WeatherDisplay:10.37,2013-01-21 16:30:00,
2013-01-21 10:35:00,24.1,16.0,27.35,North,0,1.1,1.1,71,0.00,CLR,,0.00,WeatherDisplay:10.37,2013-01-21 16:35:00,
2013-01-21 10:40:00,24.4,16.7,27.35,NE,45,1.1,0.0,72,0.00,CLR,,0.00,WeatherDisplay:10.37,2013-01-21 16:40:00,
2013-01-21 10:45:00,25.0,16.9,27.36,North,0,5.8,5.8,71,0.00,CLR,,0.00,WeatherDisplay:10.37,2013-01-21 16:45:00,
2013-01-21 10:50:00,25.2,16.4,27.35,NE,45,2.3,2.3,69,0.00,CLR,,0.00,WeatherDisplay:10.37,2013-01-21 16:50:00,
2013-01-21 10:55:00,25.5,16.8,27.36,North,0,1.1,0.0,69,0.00,CLR,,0.00,WeatherDisplay:10.37,2013-01-21 16:55:00,
2013-01-21 11:00:00,25.9,16.8,27.35,East,90,2.3,2.3,68,0.00,CLR,,0.00,WeatherDisplay:10.37,2013-01-21 17:00:00,
2013-01-21 11:05:00,26.2,16.8,27.35,NW,315,3.5,0.0,67,0.00,CLR,,0.00,WeatherDisplay:10.37,2013-01-21 17:05:00,
2013-01-21 11:10:00,26.8,16.9,27.35,NNW,338,2.3,2.3,66,0.00,CLR,,0.00,WeatherDisplay:10.37,2013-01-21 17:10:00,
2013-01-21 11:15:00,27.0,16.8,27.35,North,0,2.3,0.0,65,0.00,CLR,,0.00,WeatherDisplay:10.37,2013-01-21 17:15:00,
2013-01-21 11:20:00,27.3,17.1,27.35,North,0,4.6,0.0,65,0.00,CLR,,0.00,WeatherDisplay:10.37,2013-01-21 17:20:00,
2013-01-21 11:25:00,27.9,17.6,27.34,South,180,4.6,4.6,65,0.00,CLR,,0.00,WeatherDisplay:10.37,2013-01-21 17:25:00,
2013-01-21 11:30:00,28.2,18.0,27.34,SE,135,3.5,3.5,65,0.00,CLR,,0.00,WeatherDisplay:10.37,2013-01-21 17:30:00,
2013-01-21 11:35:00,28.8,19.9,27.35,SE,135,3.5,3.5,69,0.00,CLR,,0.00,WeatherDisplay:10.37,2013-01-21 17:35:00,
2013-01-21 11:40:00,29.1,19.9,27.35,South,180,2.3,2.3,68,0.00,CLR,,0.00,WeatherDisplay:10.37,2013-01-21 17:40:00,
2013-01-21 11:45:00,29.1,19.9,27.35,SE,135,3.5,3.5,68,0.00,CLR,,0.00,WeatherDisplay:10.37,2013-01-21 17:45:00,
2013-01-21 11:50:00,29.1,19.5,27.35,SW,225,2.3,0.0,67,0.00,CLR,,0.00,WeatherDisplay:10.37,2013-01-21 17:50:00,
2013-01-21 11:55:00,29.1,19.5,27.34,South,180,3.5,3.5,67,0.00,CLR,,0.00,WeatherDisplay:10.37,2013-01-21 17:55:00,
2013-01-21 12:01:00,29.8,20.6,27.34,SW,225,1.1,0.0,68,0.00,CLR,,0.00,WeatherDisplay:10.37,2013-01-21 18:01:00,
2013-01-21 12:06:00,29.8,20.6,27.34,SW,225,0.0,0.0,68,0.00,CLR,,0.00,WeatherDisplay:10.37,2013-01-21 18:06:00,
2013-01-21 12:11:00,30.7,20.4,27.34,North,0,2.3,2.3,65,0.00,CLR,,0.00,WeatherDisplay:10.37,2013-01-21 18:11:00,
2013-01-21 12:16:00,30.6,20.2,27.33,NE,45,3.5,3.5,65,0.00,CLR,,0.00,WeatherDisplay:10.37,2013-01-21 18:16:00,
2013-01-21 12:21:00,30.7,20.4,27.33,SE,135,3.5,3.5,65,0.00,CLR,,0.00,WeatherDisplay:10.37,2013-01-21 18:21:00,
2013-01-21 12:26:00,31.1,21.1,27.32,SE,135,3.5,3.5,66,0.00,CLR,,0.00,WeatherDisplay:10.37,2013-01-21 18:26:00,
2013-01-21 12:31:00,31.8,21.7,27.31,North,0,3.5,3.5,66,0.00,CLR,,0.00,WeatherDisplay:10.37,2013-01-21 18:31:00,
2013-01-21 12:36:00,32.2,21.7,27.31,East,90,3.5,3.5,65,0.00,CLR,,0.00,WeatherDisplay:10.37,2013-01-21 18:36:00,
2013-01-21 12:41:00,32.4,21.5,27.32,SE,135,5.8,5.8,64,0.00,CLR,,0.00,WeatherDisplay:10.37,2013-01-21 18:41:00,
2013-01-21 12:46:00,32.5,21.7,27.32,NE,45,1.1,2.2,64,0.00,CLR,,0.00,WeatherDisplay:10.37,2013-01-21 18:46:00,
2013-01-21 12:51:00,32.9,21.7,27.31,South,180,1.6,0.0,63,0.00,CLR,,0.00,WeatherDisplay:10.37,2013-01-21 18:51:00,
2013-01-21 12:56:00,33.1,21.8,27.32,North,0,1.1,0.0,63,0.00,CLR,,0.00,WeatherDisplay:10.37,2013-01-21 18:56:00,
2013-01-21 13:01:00,33.3,21.6,27.31,North,0,3.5,0.0,62,0.00,CLR,,0.00,WeatherDisplay:10.37,2013-01-21 19:01:00,
2013-01-21 13:06:00,33.3,21.3,27.31,NW,315,1.1,0.0,61,0.00,CLR,,0.00,WeatherDisplay:10.37,2013-01-21 19:06:00,
2013-01-21 13:11:00,33.4,20.6,27.31,North,0,5.8,5.8,59,0.00,CLR,,0.00,WeatherDisplay:10.37,2013-01-21 19:11:00,
2013-01-21 13:16:00,33.4,20.6,27.30,SW,225,3.5,3.5,59,0.00,CLR,,0.00,WeatherDisplay:10.37,2013-01-21 19:16:00,
2013-01-21 13:21:00,33.6,21.2,27.30,East,90,3.5,3.5,60,0.00,CLR,,0.00,WeatherDisplay:10.37,2013-01-21 19:21:00,
2013-01-21 13:26:00,34.2,21.7,27.30,NE,45,3.5,0.0,60,0.00,CLR,,0.00,WeatherDisplay:10.37,2013-01-21 19:26:00,
2013-01-21 13:31:00,34.7,21.8,27.30,NNW,338,1.1,1.1,59,0.00,CLR,,0.00,WeatherDisplay:10.37,2013-01-21 19:31:00,
2013-01-21 13:36:00,34.7,21.4,27.30,East,90,3.8,3.8,58,0.00,CLR,,0.00,WeatherDisplay:10.37,2013-01-21 19:36:00,
2013-01-21 13:41:00,34.3,20.7,27.30,NE,45,4.6,4.6,57,0.00,CLR,,0.00,WeatherDisplay:10.37,2013-01-21 19:41:00,
2013-01-21 13:46:00,34.5,21.7,27.29,East,90,1.1,1.6,59,0.00,CLR,,0.00,WeatherDisplay:10.37,2013-01-21 19:46:00,
2013-01-21 13:51:00,34.7,21.4,27.29,West,270,2.3,2.3,58,0.00,CLR,,0.00,WeatherDisplay:10.37,2013-01-21 19:51:00,
2013-01-21 13:56:00,34.7,21.0,27.28,South,180,3.5,3.8,57,0.00,CLR,,0.00,WeatherDisplay:10.37,2013-01-21 19:56:00,
2013-01-21 14:01:00,34.9,21.2,27.28,South,180,3.5,3.5,57,0.00,CLR,,0.00,WeatherDisplay:10.37,2013-01-21 20:01:00,
2013-01-21 14:06:00,34.9,21.2,27.28,South,180,3.5,3.5,57,0.00,CLR,,0.00,WeatherDisplay:10.37,2013-01-21 20:06:00,
2013-01-21 14:11:00,35.2,21.5,27.28,NW,315,3.8,3.8,57,0.00,CLR,,0.00,WeatherDisplay:10.37,2013-01-21 20:11:00,
2013-01-21 14:16:00,34.9,20.8,27.28,NW,315,3.5,3.5,56,0.00,CLR,,0.00,WeatherDisplay:10.37,2013-01-21 20:16:00,
2013-01-21 14:21:00,34.7,20.6,27.27,NW,315,3.5,3.5,56,0.00,CLR,,0.00,WeatherDisplay:10.37,2013-01-21 20:21:00,
2013-01-21 14:26:00,34.7,20.6,27.28,South,180,1.1,1.1,56,0.00,CLR,,0.00,WeatherDisplay:10.37,2013-01-21 20:26:00,
2013-01-21 14:31:00,35.2,21.5,27.28,NE,45,2.3,0.0,57,0.00,CLR,,0.00,WeatherDisplay:10.37,2013-01-21 20:31:00,
2013-01-21 14:36:00,35.4,21.3,27.27,North,0,3.5,3.5,56,0.00,CLR,,0.00,WeatherDisplay:10.37,2013-01-21 20:36:00,
2013-01-21 14:41:00,35.4,20.8,27.27,South,180,1.1,1.6,55,0.00,CLR,,0.00,WeatherDisplay:10.37,2013-01-21 20:41:00,
2013-01-21 14:46:00,35.4,21.3,27.27,North,0,1.1,1.6,56,0.00,CLR,,0.00,WeatherDisplay:10.37,2013-01-21 20:46:00,
2013-01-21 14:51:00,35.6,20.6,27.27,South,180,3.5,0.0,54,0.00,CLR,,0.00,WeatherDisplay:10.37,2013-01-21 20:51:00,
2013-01-21 14:57:00,35.8,21.2,27.27,SSE,158,3.5,3.5,55,0.00,CLR,,0.00,WeatherDisplay:10.37,2013-01-21 20:57:00,
2013-01-21 15:02:00,36.0,20.9,27.26,NW,315,3.5,3.5,54,0.00,CLR,,0.00,WeatherDisplay:10.37,2013-01-21 21:02:00,
2013-01-21 15:07:00,36.0,20.9,27.26,South,180,3.5,3.5,54,0.00,CLR,,0.00,WeatherDisplay:10.37,2013-01-21 21:07:00,
2013-01-21 15:12:00,36.0,21.3,27.26,SE,135,2.3,2.3,55,0.00,CLR,,0.00,WeatherDisplay:10.37,2013-01-21 21:12:00,
2013-01-21 15:17:00,36.1,21.5,27.26,South,180,3.5,3.5,55,0.00,CLR,,0.00,WeatherDisplay:10.37,2013-01-21 21:17:00,
2013-01-21 15:22:00,36.1,21.5,27.26,South,180,8.1,8.1,55,0.00,CLR,,0.00,WeatherDisplay:10.37,2013-01-21 21:22:00,
2013-01-21 15:27:00,35.8,20.7,27.26,SE,135,2.3,2.3,54,0.00,CLR,,0.00,WeatherDisplay:10.37,2013-01-21 21:27:00,
2013-01-21 15:32:00,36.0,20.9,27.26,South,180,3.5,3.5,54,0.00,CLR,,0.00,WeatherDisplay:10.37,2013-01-21 21:32:00,
2013-01-21 15:37:00,36.0,21.3,27.26,West,270,1.1,0.0,55,0.00,CLR,,0.00,WeatherDisplay:10.37,2013-01-21 21:37:00,
2013-01-21 15:42:00,36.1,21.5,27.26,SE,135,5.8,5.8,55,0.00,CLR,,0.00,WeatherDisplay:10.37,2013-01-21 21:42:00,
2013-01-21 15:47:00,36.0,20.9,27.26,NW,315,4.6,4.6,54,0.00,CLR,,0.00,WeatherDisplay:10.37,2013-01-21 21:47:00,
2013-01-21 15:52:00,36.0,20.9,27.26,East,90,2.3,0.0,54,0.00,CLR,,0.00,WeatherDisplay:10.37,2013-01-21 21:52:00,
2013-01-21 15:57:00,35.8,20.7,27.26,East,90,3.5,3.5,54,0.00,CLR,,0.00,WeatherDisplay:10.37,2013-01-21 21:57:00,
2013-01-21 16:02:00,36.0,20.9,27.26,SE,135,4.6,4.6,54,0.00,CLR,,0.00,WeatherDisplay:10.37,2013-01-21 22:02:00,
2013-01-21 16:07:00,36.0,20.9,27.26,SE,135,4.6,4.6,54,0.00,CLR,,0.00,WeatherDisplay:10.37,2013-01-21 22:07:00,
2013-01-21 16:12:00,35.8,20.7,27.26,East,90,3.5,3.5,54,0.00,CLR,,0.00,WeatherDisplay:10.37,2013-01-21 22:12:00,
2013-01-21 16:17:00,35.6,21.0,27.26,SE,135,3.5,3.5,55,0.00,CLR,,0.00,WeatherDisplay:10.37,2013-01-21 22:17:00,
2013-01-21 16:22:00,35.4,21.3,27.25,South,180,2.3,3.1,56,0.00,CLR,,0.00,WeatherDisplay:10.37,2013-01-21 22:22:00,
2013-01-21 16:27:00,35.1,21.3,27.26,South,180,3.5,3.5,57,0.00,CLR,,0.00,WeatherDisplay:10.37,2013-01-21 22:27:00,
2013-01-21 16:32:00,34.7,21.0,27.26,SE,135,3.5,3.5,57,0.00,CLR,,0.00,WeatherDisplay:10.37,2013-01-21 22:32:00,
2013-01-21 16:37:00,34.5,21.2,27.26,South,180,4.6,4.6,58,0.00,CLR,,0.00,WeatherDisplay:10.37,2013-01-21 22:37:00,
2013-01-21 16:42:00,34.2,20.9,27.26,East,90,6.9,6.9,58,0.00,CLR,,0.00,WeatherDisplay:10.37,2013-01-21 22:42:00,
2013-01-21 16:47:00,34.0,21.1,27.26,South,180,5.8,5.8,59,0.00,CLR,,0.00,WeatherDisplay:10.37,2013-01-21 22:47:00,
2013-01-21 16:52:00,33.6,21.6,27.26,South,180,4.6,4.6,61,0.00,CLR,,0.00,WeatherDisplay:10.37,2013-01-21 22:52:00,
2013-01-21 16:57:00,33.3,21.6,27.25,SE,135,5.8,5.8,62,0.00,CLR,,0.00,WeatherDisplay:10.37,2013-01-21 22:57:00,
2013-01-21 17:02:00,33.1,21.5,27.25,SE,135,3.5,3.5,62,0.00,CLR,,0.00,WeatherDisplay:10.37,2013-01-21 23:02:00,
2013-01-21 17:07:00,32.7,21.5,27.25,East,90,5.8,5.8,63,0.00,CLR,,0.00,WeatherDisplay:10.37,2013-01-21 23:07:00,
2013-01-21 17:12:00,32.4,21.2,27.25,South,180,5.8,5.8,63,0.00,CLR,,0.00,WeatherDisplay:10.37,2013-01-21 23:12:00,
2013-01-21 17:17:00,32.0,21.2,27.25,South,180,4.6,4.6,64,0.00,CLR,,0.00,WeatherDisplay:10.37,2013-01-21 23:17:00,
2013-01-21 17:22:00,31.6,21.2,27.26,ENE,68,2.3,2.3,65,0.00,CLR,,0.00,WeatherDisplay:10.37,2013-01-21 23:22:00,
2013-01-21 17:27:00,31.6,21.2,27.24,ENE,68,2.3,2.3,65,0.00,CLR,,0.00,WeatherDisplay:10.37,2013-01-21 23:27:00,
2013-01-21 17:32:00,31.6,21.2,27.25,North,3,2.3,2.3,65,0.00,CLR,,0.00,WeatherDisplay:10.37,2013-01-21 23:32:00,
2013-01-21 17:37:00,31.6,21.2,27.25,North,0,2.3,2.3,65,0.00,CLR,,0.00,WeatherDisplay:10.37,2013-01-21 23:37:00,
2013-01-21 17:42:00,31.6,21.2,27.25,North,0,2.3,2.3,65,0.00,CLR,,0.00,WeatherDisplay:10.37,2013-01-21 23:42:00,
2013-01-21 17:47:00,31.6,21.2,27.25,North,0,2.3,2.3,65,0.00,CLR,,0.00,WeatherDisplay:10.37,2013-01-21 23:47:00,
2013-01-21 17:52:00,29.7,20.4,27.25,South,180,1.1,1.1,68,0.00,CLR,,0.00,WeatherDisplay:10.37,2013-01-21 23:52:00,
2013-01-21 17:57:00,29.1,20.2,27.25,SE,135,3.5,3.5,69,0.00,CLR,,0.00,WeatherDisplay:10.37,2013-01-21 23:57:00,
2013-01-21 18:02:00,28.9,20.0,27.25,SE,135,1.1,1.1,69,0.00,CLR,,0.00,WeatherDisplay:10.37,2013-01-22 00:02:00,
2013-01-21 18:07:00,28.9,20.0,27.25,SE,135,1.1,1.1,69,0.00,CLR,,0.00,WeatherDisplay:10.37,2013-01-22 00:07:00,
2013-01-21 18:12:00,28.0,17.8,27.24,SE,135,0.0,0.0,65,0.00,CLR,,0.00,WeatherDisplay:10.37,2013-01-22 00:12:00,
2013-01-21 18:17:00,27.9,17.6,27.24,SE,135,1.1,1.1,65,0.00,CLR,,0.00,WeatherDisplay:10.37,2013-01-22 00:17:00,
2013-01-21 18:22:00,27.5,17.6,27.24,SE,135,1.1,1.6,66,0.00,CLR,,0.00,WeatherDisplay:10.37,2013-01-22 00:22:00,
2013-01-21 18:27:00,27.3,17.5,27.24,East,90,1.1,0.0,66,0.00,CLR,,0.00,WeatherDisplay:10.37,2013-01-22 00:27:00,
2013-01-21 18:32:00,27.0,17.5,27.25,SE,135,2.3,0.0,67,0.00,CLR,,0.00,WeatherDisplay:10.37,2013-01-22 00:32:00,
2013-01-21 18:37:00,26.8,17.6,27.25,NE,45,5.8,5.8,68,0.00,CLR,,0.00,WeatherDisplay:10.37,2013-01-22 00:37:00,
2013-01-21 18:42:00,26.4,18.3,27.25,NE,45,3.5,3.5,71,0.00,CLR,,0.00,WeatherDisplay:10.37,2013-01-22 00:42:00,
2013-01-21 18:47:00,26.2,18.4,27.25,SE,135,3.5,3.5,72,0.00,CLR,,0.00,WeatherDisplay:10.37,2013-01-22 00:47:00,
2013-01-21 18:52:00,26.1,18.6,27.25,East,90,2.3,3.1,73,0.00,CLR,,0.00,WeatherDisplay:10.37,2013-01-22 00:52:00,
2013-01-21 18:57:00,25.7,18.2,27.26,NE,45,3.5,3.5,73,0.00,CLR,,0.00,WeatherDisplay:10.37,2013-01-22 00:57:00,
2013-01-21 19:02:00,25.3,17.9,27.25,East,90,3.5,3.5,73,0.00,CLR,,0.00,WeatherDisplay:10.37,2013-01-22 01:02:00,
2013-01-21 19:07:00,25.2,17.7,27.26,SW,225,5.8,5.8,73,0.00,CLR,,0.00,WeatherDisplay:10.37,2013-01-22 01:07:00,
2013-01-21 19:12:00,25.2,18.0,27.26,South,180,5.8,5.8,74,0.00,CLR,,0.00,WeatherDisplay:10.37,2013-01-22 01:12:00,
2013-01-21 19:17:00,25.0,17.9,27.27,SE,135,4.6,4.6,74,0.00,CLR,,0.00,WeatherDisplay:10.37,2013-01-22 01:17:00,
2013-01-21 19:22:00,25.2,18.3,27.27,SE,135,5.8,5.8,75,0.00,CLR,,0.00,WeatherDisplay:10.37,2013-01-22 01:22:00,
2013-01-21 19:27:00,25.2,18.3,27.27,East,90,4.6,4.6,75,0.00,CLR,,0.00,WeatherDisplay:10.37,2013-01-22 01:27:00,
2013-01-21 19:32:00,25.2,18.7,27.27,SSE,158,3.5,3.5,76,0.00,CLR,,0.00,WeatherDisplay:10.37,2013-01-22 01:32:00,
2013-01-21 19:37:00,25.2,18.7,27.27,SE,135,5.8,5.8,76,0.00,CLR,,0.00,WeatherDisplay:10.37,2013-01-22 01:37:00,
2013-01-21 19:42:00,25.3,19.1,27.26,SE,135,5.8,5.8,77,0.00,CLR,,0.00,WeatherDisplay:10.37,2013-01-22 01:42:00,
2013-01-21 19:47:00,25.3,19.1,27.26,SW,225,6.9,6.9,77,0.00,CLR,,0.00,WeatherDisplay:10.37,2013-01-22 01:47:00,
2013-01-21 19:52:00,25.2,19.0,27.26,SE,135,5.8,6.9,77,0.00,CLR,,0.00,WeatherDisplay:10.37,2013-01-22 01:52:00,
2013-01-21 19:57:00,25.0,18.8,27.26,South,180,3.5,3.8,77,0.00,CLR,,0.00,WeatherDisplay:10.37,2013-01-22 01:57:00,
2013-01-21 20:02:00,25.0,18.8,27.26,South,180,5.8,5.8,77,0.00,CLR,,0.00,WeatherDisplay:10.37,2013-01-22 02:02:00,
2013-01-21 20:07:00,25.0,18.8,27.26,South,180,5.8,5.8,77,0.00,CLR,,0.00,WeatherDisplay:10.37,2013-01-22 02:07:00,
2013-01-21 20:12:00,24.8,18.9,27.26,SE,135,3.5,4.5,78,0.00,CLR,,0.00,WeatherDisplay:10.37,2013-01-22 02:12:00,
2013-01-21 20:17:00,24.6,19.0,27.25,East,90,5.8,5.8,79,0.00,CLR,,0.00,WeatherDisplay:10.37,2013-01-22 02:17:00,
2013-01-21 20:22:00,24.6,19.0,27.25,SE,135,3.5,3.5,79,0.00,CLR,,0.00,WeatherDisplay:10.37,2013-01-22 02:22:00,
2013-01-21 20:27:00,24.6,19.0,27.25,South,180,5.8,5.8,79,0.00,CLR,,0.00,WeatherDisplay:10.37,2013-01-22 02:27:00,
2013-01-21 20:32:00,24.4,18.9,27.25,SE,135,3.5,3.5,79,0.00,CLR,,0.00,WeatherDisplay:10.37,2013-01-22 02:32:00,
2013-01-21 20:37:00,24.4,19.2,27.26,South,180,5.8,5.8,80,0.00,CLR,,0.00,WeatherDisplay:10.37,2013-01-22 02:37:00,
2013-01-21 20:42:00,24.3,19.0,27.26,SE,135,9.2,9.2,80,0.00,CLR,,0.00,WeatherDisplay:10.37,2013-01-22 02:42:00,
2013-01-21 20:47:00,24.3,19.0,27.26,SE,135,5.8,5.8,80,0.00,CLR,,0.00,WeatherDisplay:10.37,2013-01-22 02:47:00,
2013-01-21 20:52:00,24.3,19.0,27.26,SE,135,3.5,3.5,80,0.00,CLR,,0.00,WeatherDisplay:10.37,2013-01-22 02:52:00,
2013-01-21 20:58:00,24.3,19.0,27.26,NE,45,6.9,6.9,80,0.00,CLR,,0.00,WeatherDisplay:10.37,2013-01-22 02:58:00,
2013-01-21 21:03:00,24.1,18.8,27.26,SE,135,6.0,6.0,80,0.00,CLR,,0.00,WeatherDisplay:10.37,2013-01-22 03:03:00,
2013-01-21 21:08:00,23.9,18.6,27.26,SE,135,3.5,3.5,80,0.00,CLR,,0.00,WeatherDisplay:10.37,2013-01-22 03:08:00,
2013-01-21 21:13:00,23.9,18.6,27.26,East,90,3.5,3.5,80,0.00,CLR,,0.00,WeatherDisplay:10.37,2013-01-22 03:13:00,
2013-01-21 21:18:00,23.9,18.6,27.26,SE,135,4.6,4.6,80,0.00,CLR,,0.00,WeatherDisplay:10.37,2013-01-22 03:18:00,
2013-01-21 21:23:00,23.7,18.5,27.26,SSE,158,5.8,5.8,80,0.00,CLR,,0.00,WeatherDisplay:10.37,2013-01-22 03:23:00,
2013-01-21 21:28:00,23.7,18.7,27.26,SE,135,5.8,5.8,81,0.00,CLR,,0.00,WeatherDisplay:10.37,2013-01-22 03:28:00,
2013-01-21 21:33:00,23.5,18.6,27.26,SE,135,8.1,8.1,81,0.00,CLR,,0.00,WeatherDisplay:10.37,2013-01-22 03:33:00,
2013-01-21 21:38:00,23.4,18.4,27.26,SE,135,8.1,8.1,81,0.00,CLR,,0.00,WeatherDisplay:10.37,2013-01-22 03:38:00,
2013-01-21 21:43:00,23.4,18.4,27.26,South,180,8.1,8.1,81,0.00,CLR,,0.00,WeatherDisplay:10.37,2013-01-22 03:43:00,
2013-01-21 21:48:00,23.4,18.4,27.26,South,180,6.9,6.9,81,0.00,CLR,,0.00,WeatherDisplay:10.37,2013-01-22 03:48:00,
2013-01-21 21:53:00,23.2,18.2,27.26,SE,135,5.8,5.8,81,0.00,CLR,,0.00,WeatherDisplay:10.37,2013-01-22 03:53:00,
2013-01-21 21:58:00,23.2,18.2,27.26,South,180,5.8,5.8,81,0.00,CLR,,0.00,WeatherDisplay:10.37,2013-01-22 03:58:00,
2013-01-21 22:03:00,23.2,18.2,27.26,SE,135,5.8,5.8,81,0.00,CLR,,0.00,WeatherDisplay:10.37,2013-01-22 04:03:00,
2013-01-21 22:08:00,23.0,18.0,27.26,SE,135,8.1,8.1,81,0.00,CLR,,0.00,WeatherDisplay:10.37,2013-01-22 04:08:00,
2013-01-21 22:13:00,23.0,18.0,27.26,East,90,3.5,3.5,81,0.00,CLR,,0.00,WeatherDisplay:10.37,2013-01-22 04:13:00,
2013-01-21 22:18:00,23.0,18.0,27.26,SSE,158,5.8,5.8,81,0.00,CLR,,0.00,WeatherDisplay:10.37,2013-01-22 04:18:00,
2013-01-21 22:23:00,23.0,18.0,27.26,SE,135,3.5,3.5,81,0.00,CLR,,0.00,WeatherDisplay:10.37,2013-01-22 04:23:00,
2013-01-21 22:28:00,23.0,18.3,27.26,South,180,6.9,6.9,82,0.00,CLR,,0.00,WeatherDisplay:10.37,2013-01-22 04:28:00,
2013-01-21 22:33:00,23.0,18.3,27.26,South,180,4.6,4.6,82,0.00,CLR,,0.00,WeatherDisplay:10.37,2013-01-22 04:33:00,
2013-01-21 22:38:00,23.0,18.3,27.26,SE,135,4.6,4.6,82,0.00,CLR,,0.00,WeatherDisplay:10.37,2013-01-22 04:38:00,
2013-01-21 22:43:00,23.0,18.3,27.25,SE,135,6.9,6.9,82,0.00,CLR,,0.00,WeatherDisplay:10.37,2013-01-22 04:43:00,
2013-01-21 22:48:00,22.8,18.4,27.25,South,180,6.9,6.9,83,0.00,CLR,,0.00,WeatherDisplay:10.37,2013-01-22 04:48:00,
2013-01-21 22:53:00,22.8,18.4,27.25,South,180,8.1,8.1,83,0.00,CLR,,0.00,WeatherDisplay:10.37,2013-01-22 04:53:00,
2013-01-21 22:58:00,22.8,18.4,27.26,SSE,158,8.1,8.1,83,0.00,CLR,,0.00,WeatherDisplay:10.37,2013-01-22 04:58:00,
2013-01-21 23:00:00,22.6,18.3,27.26,SSE,158,3.5,3.5,83,0.00,CLR,,0.00,WeatherDisplay:10.37,2013-01-22 05:00:00,
2013-01-21 23:01:00,22.6,18.3,27.26,SE,135,5.8,5.8,83,0.00,CLR,,0.00,WeatherDisplay:10.37,2013-01-22 05:01:00,
2013-01-21 23:07:00,22.6,18.3,27.26,SSE,158,4.6,4.6,83,0.00,CLR,,0.00,WeatherDisplay:10.37,2013-01-22 05:07:00,
2013-01-21 23:12:00,22.5,18.1,27.26,East,90,3.5,3.5,83,0.00,CLR,,0.00,WeatherDisplay:10.37,2013-01-22 05:12:00,
2013-01-21 23:17:00,22.5,18.1,27.26,SE,135,6.9,6.9,83,0.00,CLR,,0.00,WeatherDisplay:10.37,2013-01-22 05:17:00,
2013-01-21 23:22:00,22.5,17.8,27.26,ESE,112,4.6,4.6,82,0.00,CLR,,0.00,WeatherDisplay:10.37,2013-01-22 05:22:00,
2013-01-21 23:27:00,22.5,17.8,27.25,South,180,6.9,6.9,82,0.00,CLR,,0.00,WeatherDisplay:10.37,2013-01-22 05:27:00,
2013-01-21 23:32:00,22.3,17.6,27.26,East,90,5.8,5.8,82,0.00,CLR,,0.00,WeatherDisplay:10.37,2013-01-22 05:32:00,
2013-01-21 23:37:00,22.3,17.6,27.25,East,90,5.8,5.8,82,0.00,CLR,,0.00,WeatherDisplay:10.37,2013-01-22 05:37:00,
2013-01-21 23:42:00,22.3,17.6,27.26,South,180,5.8,5.8,82,0.00,CLR,,0.00,WeatherDisplay:10.37,2013-01-22 05:42:00,
2013-01-21 23:47:00,22.3,17.6,27.26,South,180,5.8,5.8,82,0.00,CLR,,0.00,WeatherDisplay:10.37,2013-01-22 05:47:00,
2013-01-21 23:52:00,22.3,17.6,27.25,SE,135,3.5,3.5,82,0.00,CLR,,0.00,WeatherDisplay:10.37,2013-01-22 05:52:00,
2013-01-21 23:57:00,22.3,17.6,27.25,East,90,4.6,4.6,82,0.00,CLR,,0.00,WeatherDisplay:10.37,2013-01-22 05:57:00,